sensor_id;sensor_type;location;lat;lon;timestamp;P1;durP1;ratioP1;P2;durP2;ratioP2
6027;SDS011;3042;43.194;27.646;2023-08-08T00:00:10;39.30;;;36.33;;
6027;SDS011;3042;43.194;27.646;2023-08-08T00:02:39;37.90;;;35.30;;
6027;SDS011;3042;43.194;27.646;2023-08-08T00:05:08;37.73;;;35.13;;
6027;SDS011;3042;43.194;27.646;2023-08-08T00:07:35;38.00;;;35.30;;
6027;SDS011;3042;43.194;27.646;2023-08-08T00:10:03;42.53;;;40.43;;
6027;SDS011;3042;43.194;27.646;2023-08-08T00:12:30;44.70;;;39.50;;
6027;SDS011;3042;43.194;27.646;2023-08-08T00:14:57;40.37;;;37.87;;
6027;SDS011;3042;43.194;27.646;2023-08-08T00:17:25;32.30;;;30.60;;
6027;SDS011;3042;43.194;27.646;2023-08-08T00:19:52;34.43;;;32.73;;
6027;SDS011;3042;43.194;27.646;2023-08-08T00:22:20;39.97;;;37.50;;
6027;SDS011;3042;43.194;27.646;2023-08-08T00:24:48;36.07;;;34.07;;
6027;SDS011;3042;43.194;27.646;2023-08-08T00:27:15;39.17;;;37.07;;
6027;SDS011;3042;43.194;27.646;2023-08-08T00:29:42;34.90;;;33.00;;
6027;SDS011;3042;43.194;27.646;2023-08-08T00:32:09;34.10;;;32.37;;
6027;SDS011;3042;43.194;27.646;2023-08-08T00:34:36;30.63;;;29.03;;
6027;SDS011;3042;43.194;27.646;2023-08-08T00:37:03;46.33;;;23.57;;
6027;SDS011;3042;43.194;27.646;2023-08-08T00:39:32;22.93;;;21.53;;
6027;SDS011;3042;43.194;27.646;2023-08-08T00:41:59;21.27;;;19.17;;
6027;SDS011;3042;43.194;27.646;2023-08-08T00:44:26;19.57;;;17.07;;
6027;SDS011;3042;43.194;27.646;2023-08-08T00:46:53;18.53;;;16.93;;
6027;SDS011;3042;43.194;27.646;2023-08-08T00:49:20;20.47;;;16.67;;
6027;SDS011;3042;43.194;27.646;2023-08-08T00:51:48;18.40;;;17.30;;
6027;SDS011;3042;43.194;27.646;2023-08-08T00:54:15;24.10;;;17.80;;
6027;SDS011;3042;43.194;27.646;2023-08-08T00:56:43;17.90;;;16.37;;
6027;SDS011;3042;43.194;27.646;2023-08-08T00:59:11;19.13;;;17.30;;
6027;SDS011;3042;43.194;27.646;2023-08-08T01:01:40;17.80;;;16.10;;
6027;SDS011;3042;43.194;27.646;2023-08-08T01:04:07;16.93;;;15.93;;
6027;SDS011;3042;43.194;27.646;2023-08-08T01:06:36;17.43;;;16.13;;
6027;SDS011;3042;43.194;27.646;2023-08-08T01:09:08;17.50;;;16.20;;
6027;SDS011;3042;43.194;27.646;2023-08-08T01:11:39;19.00;;;16.97;;
6027;SDS011;3042;43.194;27.646;2023-08-08T01:14:08;17.67;;;16.63;;
6027;SDS011;3042;43.194;27.646;2023-08-08T01:16:36;18.57;;;17.30;;
6027;SDS011;3042;43.194;27.646;2023-08-08T01:19:04;22.57;;;20.70;;
6027;SDS011;3042;43.194;27.646;2023-08-08T01:21:34;23.07;;;20.50;;
6027;SDS011;3042;43.194;27.646;2023-08-08T01:24:15;18.10;;;17.03;;
6027;SDS011;3042;43.194;27.646;2023-08-08T01:26:45;19.47;;;18.40;;
6027;SDS011;3042;43.194;27.646;2023-08-08T01:29:12;21.83;;;19.90;;
6027;SDS011;3042;43.194;27.646;2023-08-08T01:31:39;20.03;;;18.93;;
6027;SDS011;3042;43.194;27.646;2023-08-08T01:34:07;21.10;;;19.13;;
6027;SDS011;3042;43.194;27.646;2023-08-08T01:36:35;19.53;;;18.00;;
6027;SDS011;3042;43.194;27.646;2023-08-08T01:39:09;19.40;;;18.20;;
6027;SDS011;3042;43.194;27.646;2023-08-08T01:41:42;17.13;;;16.40;;
6027;SDS011;3042;43.194;27.646;2023-08-08T01:44:12;18.23;;;17.03;;
6027;SDS011;3042;43.194;27.646;2023-08-08T01:46:40;18.63;;;17.40;;
6027;SDS011;3042;43.194;27.646;2023-08-08T01:49:07;19.13;;;18.20;;
6027;SDS011;3042;43.194;27.646;2023-08-08T01:51:34;19.80;;;18.00;;
6027;SDS011;3042;43.194;27.646;2023-08-08T01:54:01;19.73;;;18.83;;
6027;SDS011;3042;43.194;27.646;2023-08-08T01:56:28;21.20;;;20.30;;
6027;SDS011;3042;43.194;27.646;2023-08-08T01:58:57;22.50;;;21.60;;
6027;SDS011;3042;43.194;27.646;2023-08-08T02:01:24;25.17;;;23.03;;
6027;SDS011;3042;43.194;27.646;2023-08-08T02:03:51;23.17;;;21.83;;
6027;SDS011;3042;43.194;27.646;2023-08-08T02:06:18;26.93;;;24.50;;
6027;SDS011;3042;43.194;27.646;2023-08-08T02:08:45;23.70;;;22.60;;
6027;SDS011;3042;43.194;27.646;2023-08-08T02:11:13;25.50;;;24.30;;
6027;SDS011;3042;43.194;27.646;2023-08-08T02:13:40;27.40;;;26.20;;
6027;SDS011;3042;43.194;27.646;2023-08-08T02:16:08;24.50;;;23.50;;
6027;SDS011;3042;43.194;27.646;2023-08-08T02:18:35;21.87;;;21.00;;
6027;SDS011;3042;43.194;27.646;2023-08-08T02:21:06;21.43;;;20.53;;
6027;SDS011;3042;43.194;27.646;2023-08-08T02:23:33;24.53;;;23.13;;
6027;SDS011;3042;43.194;27.646;2023-08-08T02:26:01;23.20;;;22.30;;
6027;SDS011;3042;43.194;27.646;2023-08-08T02:28:28;25.33;;;23.53;;
6027;SDS011;3042;43.194;27.646;2023-08-08T02:30:55;23.50;;;22.60;;
6027;SDS011;3042;43.194;27.646;2023-08-08T02:33:24;26.70;;;25.57;;
6027;SDS011;3042;43.194;27.646;2023-08-08T02:35:52;25.93;;;24.80;;
6027;SDS011;3042;43.194;27.646;2023-08-08T02:38:19;28.37;;;26.97;;
6027;SDS011;3042;43.194;27.646;2023-08-08T02:40:46;27.47;;;26.27;;
6027;SDS011;3042;43.194;27.646;2023-08-08T02:43:13;27.80;;;26.60;;
6027;SDS011;3042;43.194;27.646;2023-08-08T02:45:41;28.53;;;27.23;;
6027;SDS011;3042;43.194;27.646;2023-08-08T02:48:08;23.17;;;22.07;;
6027;SDS011;3042;43.194;27.646;2023-08-08T02:50:37;23.17;;;21.77;;
6027;SDS011;3042;43.194;27.646;2023-08-08T02:53:04;27.70;;;26.30;;
6027;SDS011;3042;43.194;27.646;2023-08-08T02:55:31;28.20;;;26.70;;
6027;SDS011;3042;43.194;27.646;2023-08-08T02:57:58;20.23;;;19.50;;
6027;SDS011;3042;43.194;27.646;2023-08-08T03:00:25;19.93;;;18.30;;
6027;SDS011;3042;43.194;27.646;2023-08-08T03:02:52;23.43;;;21.73;;
6027;SDS011;3042;43.194;27.646;2023-08-08T03:05:20;29.30;;;27.30;;
6027;SDS011;3042;43.194;27.646;2023-08-08T03:07:48;28.67;;;27.07;;
6027;SDS011;3042;43.194;27.646;2023-08-08T03:10:15;29.10;;;27.57;;
6027;SDS011;3042;43.194;27.646;2023-08-08T03:12:43;29.20;;;27.70;;
6027;SDS011;3042;43.194;27.646;2023-08-08T03:15:10;28.43;;;26.93;;
6027;SDS011;3042;43.194;27.646;2023-08-08T03:17:38;30.10;;;28.20;;
6027;SDS011;3042;43.194;27.646;2023-08-08T03:20:05;28.43;;;26.83;;
6027;SDS011;3042;43.194;27.646;2023-08-08T03:22:34;29.17;;;27.77;;
6027;SDS011;3042;43.194;27.646;2023-08-08T03:25:03;21.80;;;20.90;;
6027;SDS011;3042;43.194;27.646;2023-08-08T03:27:31;20.40;;;19.27;;
6027;SDS011;3042;43.194;27.646;2023-08-08T03:29:58;21.20;;;20.40;;
6027;SDS011;3042;43.194;27.646;2023-08-08T03:32:25;22.43;;;21.43;;
6027;SDS011;3042;43.194;27.646;2023-08-08T03:34:52;20.83;;;19.57;;
6027;SDS011;3042;43.194;27.646;2023-08-08T03:37:19;24.57;;;23.30;;
6027;SDS011;3042;43.194;27.646;2023-08-08T03:39:46;22.30;;;21.30;;
6027;SDS011;3042;43.194;27.646;2023-08-08T03:42:15;21.97;;;21.07;;
6027;SDS011;3042;43.194;27.646;2023-08-08T03:44:42;29.80;;;27.77;;
6027;SDS011;3042;43.194;27.646;2023-08-08T03:47:10;22.43;;;21.47;;
6027;SDS011;3042;43.194;27.646;2023-08-08T03:49:37;29.93;;;28.20;;
6027;SDS011;3042;43.194;27.646;2023-08-08T03:52:04;31.00;;;29.30;;
6027;SDS011;3042;43.194;27.646;2023-08-08T03:54:32;31.43;;;29.53;;
6027;SDS011;3042;43.194;27.646;2023-08-08T03:56:59;28.53;;;27.13;;
6027;SDS011;3042;43.194;27.646;2023-08-08T03:59:28;27.07;;;25.67;;
6027;SDS011;3042;43.194;27.646;2023-08-08T04:01:55;31.77;;;29.60;;
6027;SDS011;3042;43.194;27.646;2023-08-08T04:04:22;31.07;;;29.07;;
6027;SDS011;3042;43.194;27.646;2023-08-08T04:06:49;28.93;;;27.20;;
6027;SDS011;3042;43.194;27.646;2023-08-08T04:09:16;25.83;;;23.80;;
6027;SDS011;3042;43.194;27.646;2023-08-08T04:11:43;26.77;;;25.10;;
6027;SDS011;3042;43.194;27.646;2023-08-08T04:14:12;27.90;;;26.53;;
6027;SDS011;3042;43.194;27.646;2023-08-08T04:16:41;40.77;;;28.07;;
6027;SDS011;3042;43.194;27.646;2023-08-08T04:19:08;30.43;;;27.77;;
6027;SDS011;3042;43.194;27.646;2023-08-08T04:21:35;35.00;;;24.83;;
6027;SDS011;3042;43.194;27.646;2023-08-08T04:24:03;24.70;;;23.10;;
6027;SDS011;3042;43.194;27.646;2023-08-08T04:26:30;21.97;;;20.77;;
6027;SDS011;3042;43.194;27.646;2023-08-08T04:28:57;58.13;;;29.80;;
6027;SDS011;3042;43.194;27.646;2023-08-08T04:31:24;30.03;;;28.33;;
6027;SDS011;3042;43.194;27.646;2023-08-08T04:33:53;25.37;;;24.07;;
6027;SDS011;3042;43.194;27.646;2023-08-08T04:36:25;28.33;;;25.90;;
6027;SDS011;3042;43.194;27.646;2023-08-08T04:38:53;45.73;;;29.40;;
6027;SDS011;3042;43.194;27.646;2023-08-08T04:41:24;27.53;;;25.53;;
6027;SDS011;3042;43.194;27.646;2023-08-08T04:43:51;22.73;;;20.23;;
6027;SDS011;3042;43.194;27.646;2023-08-08T04:46:18;26.10;;;22.70;;
6027;SDS011;3042;43.194;27.646;2023-08-08T04:48:46;37.43;;;21.30;;
6027;SDS011;3042;43.194;27.646;2023-08-08T04:51:16;27.27;;;20.40;;
6027;SDS011;3042;43.194;27.646;2023-08-08T04:53:43;24.37;;;20.17;;
6027;SDS011;3042;43.194;27.646;2023-08-08T04:56:10;36.87;;;27.77;;
6027;SDS011;3042;43.194;27.646;2023-08-08T04:58:38;25.33;;;22.40;;
6027;SDS011;3042;43.194;27.646;2023-08-08T05:01:05;30.50;;;22.27;;
6027;SDS011;3042;43.194;27.646;2023-08-08T05:05:46;74.30;;;26.97;;
6027;SDS011;3042;43.194;27.646;2023-08-08T05:07:20;21.30;;;19.63;;
6027;SDS011;3042;43.194;27.646;2023-08-08T05:10:25;27.17;;;20.60;;
6027;SDS011;3042;43.194;27.646;2023-08-08T05:13:01;40.17;;;23.77;;
6027;SDS011;3042;43.194;27.646;2023-08-08T05:15:28;19.80;;;18.43;;
6027;SDS011;3042;43.194;27.646;2023-08-08T05:17:56;22.57;;;20.23;;
6027;SDS011;3042;43.194;27.646;2023-08-08T05:20:26;25.90;;;24.30;;
6027;SDS011;3042;43.194;27.646;2023-08-08T05:22:55;31.27;;;28.63;;
6027;SDS011;3042;43.194;27.646;2023-08-08T05:25:22;34.33;;;29.17;;
6027;SDS011;3042;43.194;27.646;2023-08-08T05:27:51;22.47;;;20.90;;
6027;SDS011;3042;43.194;27.646;2023-08-08T05:30:18;23.23;;;21.47;;
6027;SDS011;3042;43.194;27.646;2023-08-08T05:32:45;30.40;;;20.63;;
6027;SDS011;3042;43.194;27.646;2023-08-08T05:35:13;24.67;;;22.07;;
6027;SDS011;3042;43.194;27.646;2023-08-08T05:37:40;93.70;;;22.93;;
6027;SDS011;3042;43.194;27.646;2023-08-08T05:40:09;58.13;;;23.30;;
6027;SDS011;3042;43.194;27.646;2023-08-08T05:42:37;27.23;;;24.43;;
6027;SDS011;3042;43.194;27.646;2023-08-08T05:45:04;31.37;;;19.93;;
6027;SDS011;3042;43.194;27.646;2023-08-08T05:47:32;21.40;;;19.13;;
6027;SDS011;3042;43.194;27.646;2023-08-08T05:49:59;60.57;;;24.60;;
6027;SDS011;3042;43.194;27.646;2023-08-08T05:52:27;46.70;;;27.13;;
6027;SDS011;3042;43.194;27.646;2023-08-08T05:54:54;27.27;;;22.77;;
6027;SDS011;3042;43.194;27.646;2023-08-08T05:57:23;23.40;;;21.30;;
6027;SDS011;3042;43.194;27.646;2023-08-08T05:59:50;24.70;;;22.50;;
6027;SDS011;3042;43.194;27.646;2023-08-08T06:02:17;40.27;;;23.37;;
6027;SDS011;3042;43.194;27.646;2023-08-08T06:04:44;23.30;;;20.20;;
6027;SDS011;3042;43.194;27.646;2023-08-08T06:07:11;21.23;;;19.73;;
6027;SDS011;3042;43.194;27.646;2023-08-08T06:09:39;37.10;;;22.47;;
6027;SDS011;3042;43.194;27.646;2023-08-08T06:12:06;22.93;;;20.90;;
6027;SDS011;3042;43.194;27.646;2023-08-08T06:14:35;27.33;;;24.40;;
6027;SDS011;3042;43.194;27.646;2023-08-08T06:17:02;24.13;;;20.50;;
6027;SDS011;3042;43.194;27.646;2023-08-08T06:19:30;21.63;;;19.93;;
6027;SDS011;3042;43.194;27.646;2023-08-08T06:21:57;23.43;;;21.07;;
6027;SDS011;3042;43.194;27.646;2023-08-08T06:24:26;25.83;;;23.83;;
6027;SDS011;3042;43.194;27.646;2023-08-08T06:26:53;26.25;;;23.35;;
6027;SDS011;3042;43.194;27.646;2023-08-08T06:29:21;58.10;;;26.60;;
6027;SDS011;3042;43.194;27.646;2023-08-08T06:31:53;24.20;;;21.87;;
6027;SDS011;3042;43.194;27.646;2023-08-08T06:34:20;26.07;;;23.67;;
6027;SDS011;3042;43.194;27.646;2023-08-08T06:36:48;23.20;;;21.20;;
6027;SDS011;3042;43.194;27.646;2023-08-08T06:39:15;24.60;;;22.17;;
6027;SDS011;3042;43.194;27.646;2023-08-08T06:41:44;23.43;;;21.03;;
6027;SDS011;3042;43.194;27.646;2023-08-08T06:44:11;22.40;;;19.00;;
6027;SDS011;3042;43.194;27.646;2023-08-08T06:46:38;24.93;;;21.30;;
6027;SDS011;3042;43.194;27.646;2023-08-08T06:49:09;32.03;;;20.57;;
6027;SDS011;3042;43.194;27.646;2023-08-08T06:51:37;98.63;;;25.47;;
6027;SDS011;3042;43.194;27.646;2023-08-08T06:59:27;24.00;;;21.57;;
6027;SDS011;3042;43.194;27.646;2023-08-08T07:01:14;48.80;;;23.90;;
6027;SDS011;3042;43.194;27.646;2023-08-08T07:03:41;20.53;;;19.33;;
6027;SDS011;3042;43.194;27.646;2023-08-08T07:06:10;20.97;;;19.20;;
6027;SDS011;3042;43.194;27.646;2023-08-08T07:08:37;23.40;;;21.30;;
6027;SDS011;3042;43.194;27.646;2023-08-08T07:11:06;26.17;;;21.57;;
6027;SDS011;3042;43.194;27.646;2023-08-08T07:13:37;21.50;;;19.77;;
6027;SDS011;3042;43.194;27.646;2023-08-08T07:16:09;22.03;;;19.67;;
6027;SDS011;3042;43.194;27.646;2023-08-08T07:18:38;20.77;;;19.33;;
6027;SDS011;3042;43.194;27.646;2023-08-08T07:21:08;21.90;;;20.30;;
6027;SDS011;3042;43.194;27.646;2023-08-08T07:23:40;52.10;;;22.37;;
6027;SDS011;3042;43.194;27.646;2023-08-08T07:26:07;22.53;;;20.73;;
6027;SDS011;3042;43.194;27.646;2023-08-08T07:28:34;23.93;;;22.13;;
6027;SDS011;3042;43.194;27.646;2023-08-08T07:31:03;24.13;;;22.00;;
6027;SDS011;3042;43.194;27.646;2023-08-08T07:33:30;23.33;;;21.43;;
6027;SDS011;3042;43.194;27.646;2023-08-08T07:35:58;26.90;;;24.17;;
6027;SDS011;3042;43.194;27.646;2023-08-08T07:38:26;46.73;;;24.80;;
6027;SDS011;3042;43.194;27.646;2023-08-08T07:41:05;23.67;;;21.87;;
6027;SDS011;3042;43.194;27.646;2023-08-08T07:43:56;27.33;;;22.90;;
6027;SDS011;3042;43.194;27.646;2023-08-08T07:46:54;24.93;;;20.67;;
6027;SDS011;3042;43.194;27.646;2023-08-08T07:49:49;23.27;;;21.20;;
6027;SDS011;3042;43.194;27.646;2023-08-08T07:52:46;48.10;;;23.20;;
6027;SDS011;3042;43.194;27.646;2023-08-08T07:55:31;23.50;;;21.43;;
6027;SDS011;3042;43.194;27.646;2023-08-08T07:57:58;22.47;;;20.30;;
6027;SDS011;3042;43.194;27.646;2023-08-08T08:00:25;31.70;;;22.37;;
6027;SDS011;3042;43.194;27.646;2023-08-08T08:02:52;24.17;;;21.90;;
6027;SDS011;3042;43.194;27.646;2023-08-08T08:05:20;25.88;;;21.92;;
6027;SDS011;3042;43.194;27.646;2023-08-08T08:07:47;24.27;;;22.17;;
6027;SDS011;3042;43.194;27.646;2023-08-08T08:10:14;30.10;;;22.87;;
6027;SDS011;3042;43.194;27.646;2023-08-08T08:12:43;25.10;;;22.80;;
6027;SDS011;3042;43.194;27.646;2023-08-08T08:15:10;24.03;;;21.93;;
6027;SDS011;3042;43.194;27.646;2023-08-08T08:17:38;26.45;;;24.25;;
6027;SDS011;3042;43.194;27.646;2023-08-08T08:20:05;22.30;;;20.63;;
6027;SDS011;3042;43.194;27.646;2023-08-08T08:22:36;31.17;;;24.10;;
6027;SDS011;3042;43.194;27.646;2023-08-08T08:25:04;23.70;;;21.80;;
6027;SDS011;3042;43.194;27.646;2023-08-08T08:27:34;23.43;;;21.87;;
6027;SDS011;3042;43.194;27.646;2023-08-08T08:30:03;25.00;;;22.50;;
6027;SDS011;3042;43.194;27.646;2023-08-08T08:32:32;25.60;;;23.80;;
6027;SDS011;3042;43.194;27.646;2023-08-08T08:35:01;24.60;;;22.70;;
6027;SDS011;3042;43.194;27.646;2023-08-08T08:40:24;24.33;;;22.33;;
6027;SDS011;3042;43.194;27.646;2023-08-08T08:42:52;29.90;;;23.37;;
6027;SDS011;3042;43.194;27.646;2023-08-08T08:45:21;25.23;;;23.00;;
6027;SDS011;3042;43.194;27.646;2023-08-08T08:47:49;26.00;;;23.70;;
6027;SDS011;3042;43.194;27.646;2023-08-08T08:50:19;25.43;;;23.20;;
6027;SDS011;3042;43.194;27.646;2023-08-08T08:52:46;27.73;;;24.95;;
6027;SDS011;3042;43.194;27.646;2023-08-08T08:55:14;31.63;;;22.20;;
6027;SDS011;3042;43.194;27.646;2023-08-08T08:57:41;21.90;;;20.40;;
6027;SDS011;3042;43.194;27.646;2023-08-08T09:00:10;23.27;;;21.63;;
6027;SDS011;3042;43.194;27.646;2023-08-08T09:02:40;24.47;;;22.53;;
6027;SDS011;3042;43.194;27.646;2023-08-08T09:05:07;24.57;;;22.50;;
6027;SDS011;3042;43.194;27.646;2023-08-08T09:07:36;32.80;;;22.43;;
6027;SDS011;3042;43.194;27.646;2023-08-08T09:10:03;25.50;;;22.83;;
6027;SDS011;3042;43.194;27.646;2023-08-08T09:12:32;25.33;;;23.07;;
6027;SDS011;3042;43.194;27.646;2023-08-08T09:15:03;29.83;;;27.03;;
6027;SDS011;3042;43.194;27.646;2023-08-08T09:17:31;31.33;;;26.40;;
6027;SDS011;3042;43.194;27.646;2023-08-08T09:19:59;25.30;;;23.70;;
6027;SDS011;3042;43.194;27.646;2023-08-08T09:22:26;26.60;;;25.00;;
6027;SDS011;3042;43.194;27.646;2023-08-08T09:24:54;27.77;;;25.13;;
6027;SDS011;3042;43.194;27.646;2023-08-08T09:27:21;25.80;;;24.70;;
6027;SDS011;3042;43.194;27.646;2023-08-08T09:29:49;26.23;;;24.87;;
6027;SDS011;3042;43.194;27.646;2023-08-08T09:32:17;28.93;;;27.33;;
6027;SDS011;3042;43.194;27.646;2023-08-08T09:34:44;30.73;;;29.07;;
6027;SDS011;3042;43.194;27.646;2023-08-08T09:37:13;33.22;;;31.13;;
6027;SDS011;3042;43.194;27.646;2023-08-08T09:39:40;27.13;;;25.40;;
6027;SDS011;3042;43.194;27.646;2023-08-08T09:42:10;27.47;;;25.87;;
6027;SDS011;3042;43.194;27.646;2023-08-08T09:44:39;28.43;;;26.80;;
6027;SDS011;3042;43.194;27.646;2023-08-08T09:47:11;27.13;;;25.93;;
6027;SDS011;3042;43.194;27.646;2023-08-08T09:49:39;28.83;;;27.53;;
6027;SDS011;3042;43.194;27.646;2023-08-08T09:52:07;29.33;;;27.93;;
6027;SDS011;3042;43.194;27.646;2023-08-08T09:54:35;26.70;;;25.43;;
6027;SDS011;3042;43.194;27.646;2023-08-08T09:57:04;29.40;;;27.60;;
6027;SDS011;3042;43.194;27.646;2023-08-08T09:59:33;44.93;;;33.43;;
6027;SDS011;3042;43.194;27.646;2023-08-08T10:02:01;35.50;;;32.43;;
6027;SDS011;3042;43.194;27.646;2023-08-08T10:04:31;32.13;;;30.10;;
6027;SDS011;3042;43.194;27.646;2023-08-08T10:06:59;36.07;;;33.30;;
6027;SDS011;3042;43.194;27.646;2023-08-08T10:09:27;39.27;;;36.40;;
6027;SDS011;3042;43.194;27.646;2023-08-08T10:11:56;36.77;;;34.03;;
6027;SDS011;3042;43.194;27.646;2023-08-08T10:14:28;34.30;;;32.20;;
6027;SDS011;3042;43.194;27.646;2023-08-08T10:16:56;39.50;;;36.57;;
6027;SDS011;3042;43.194;27.646;2023-08-08T10:19:23;37.43;;;34.33;;
6027;SDS011;3042;43.194;27.646;2023-08-08T10:21:55;48.05;;;42.92;;
6027;SDS011;3042;43.194;27.646;2023-08-08T10:24:23;38.93;;;35.67;;
6027;SDS011;3042;43.194;27.646;2023-08-08T10:26:51;40.10;;;37.53;;
6027;SDS011;3042;43.194;27.646;2023-08-08T10:29:24;35.73;;;33.20;;
6027;SDS011;3042;43.194;27.646;2023-08-08T10:31:52;38.37;;;35.40;;
6027;SDS011;3042;43.194;27.646;2023-08-08T10:34:20;41.47;;;38.67;;
6027;SDS011;3042;43.194;27.646;2023-08-08T10:36:53;44.33;;;36.20;;
6027;SDS011;3042;43.194;27.646;2023-08-08T10:39:20;59.57;;;38.13;;
6027;SDS011;3042;43.194;27.646;2023-08-08T10:41:48;47.80;;;41.77;;
6027;SDS011;3042;43.194;27.646;2023-08-08T10:44:24;41.73;;;38.80;;
6027;SDS011;3042;43.194;27.646;2023-08-08T10:46:52;42.73;;;39.80;;
6027;SDS011;3042;43.194;27.646;2023-08-08T10:49:20;38.40;;;35.67;;
6027;SDS011;3042;43.194;27.646;2023-08-08T10:51:48;74.60;;;70.20;;
6027;SDS011;3042;43.194;27.646;2023-08-08T10:54:17;44.97;;;41.70;;
6027;SDS011;3042;43.194;27.646;2023-08-08T10:56:49;49.40;;;46.43;;
6027;SDS011;3042;43.194;27.646;2023-08-08T10:59:17;47.67;;;44.63;;
6027;SDS011;3042;43.194;27.646;2023-08-08T11:01:47;40.67;;;38.00;;
6027;SDS011;3042;43.194;27.646;2023-08-08T11:04:15;40.33;;;37.83;;
6027;SDS011;3042;43.194;27.646;2023-08-08T11:06:44;65.63;;;60.97;;
6027;SDS011;3042;43.194;27.646;2023-08-08T11:09:12;34.67;;;32.73;;
6027;SDS011;3042;43.194;27.646;2023-08-08T11:11:40;39.30;;;36.20;;
6027;SDS011;3042;43.194;27.646;2023-08-08T11:14:10;39.47;;;37.07;;
6027;SDS011;3042;43.194;27.646;2023-08-08T11:16:38;41.97;;;39.28;;
6027;SDS011;3042;43.194;27.646;2023-08-08T11:19:07;41.17;;;38.27;;
6027;SDS011;3042;43.194;27.646;2023-08-08T11:21:35;41.27;;;39.07;;
6027;SDS011;3042;43.194;27.646;2023-08-08T11:24:03;50.30;;;47.53;;
6027;SDS011;3042;43.194;27.646;2023-08-08T11:26:31;40.53;;;38.53;;
6027;SDS011;3042;43.194;27.646;2023-08-08T11:28:59;35.20;;;33.30;;
6027;SDS011;3042;43.194;27.646;2023-08-08T11:31:26;32.60;;;31.00;;
6027;SDS011;3042;43.194;27.646;2023-08-08T11:33:55;34.53;;;32.57;;
6027;SDS011;3042;43.194;27.646;2023-08-08T11:36:24;30.30;;;28.70;;
6027;SDS011;3042;43.194;27.646;2023-08-08T11:38:52;31.50;;;29.70;;
6027;SDS011;3042;43.194;27.646;2023-08-08T11:41:21;25.40;;;24.03;;
6027;SDS011;3042;43.194;27.646;2023-08-08T11:43:51;26.67;;;24.90;;
6027;SDS011;3042;43.194;27.646;2023-08-08T11:46:22;26.80;;;25.00;;
6027;SDS011;3042;43.194;27.646;2023-08-08T11:48:50;22.53;;;21.63;;
6027;SDS011;3042;43.194;27.646;2023-08-08T11:51:17;23.10;;;21.77;;
6027;SDS011;3042;43.194;27.646;2023-08-08T11:53:50;22.93;;;21.37;;
6027;SDS011;3042;43.194;27.646;2023-08-08T11:56:18;22.50;;;20.70;;
6027;SDS011;3042;43.194;27.646;2023-08-08T11:58:47;24.80;;;22.23;;
6027;SDS011;3042;43.194;27.646;2023-08-08T12:01:19;21.63;;;19.87;;
6027;SDS011;3042;43.194;27.646;2023-08-08T12:03:46;76.13;;;33.47;;
6027;SDS011;3042;43.194;27.646;2023-08-08T12:06:13;24.33;;;22.23;;
6027;SDS011;3042;43.194;27.646;2023-08-08T12:08:41;28.40;;;24.97;;
6027;SDS011;3042;43.194;27.646;2023-08-08T12:11:11;52.50;;;26.00;;
6027;SDS011;3042;43.194;27.646;2023-08-08T12:13:40;36.33;;;22.97;;
6027;SDS011;3042;43.194;27.646;2023-08-08T12:16:08;25.50;;;23.60;;
6027;SDS011;3042;43.194;27.646;2023-08-08T12:18:36;28.90;;;22.90;;
6027;SDS011;3042;43.194;27.646;2023-08-08T12:21:12;23.47;;;21.20;;
6027;SDS011;3042;43.194;27.646;2023-08-08T12:24:02;23.20;;;21.60;;
6027;SDS011;3042;43.194;27.646;2023-08-08T12:26:31;38.53;;;22.37;;
6027;SDS011;3042;43.194;27.646;2023-08-08T12:29:00;27.30;;;25.10;;
6027;SDS011;3042;43.194;27.646;2023-08-08T12:31:28;54.57;;;24.03;;
6027;SDS011;3042;43.194;27.646;2023-08-08T12:33:56;22.07;;;20.67;;
6027;SDS011;3042;43.194;27.646;2023-08-08T12:36:23;26.13;;;24.13;;
6027;SDS011;3042;43.194;27.646;2023-08-08T12:38:50;22.17;;;20.43;;
6027;SDS011;3042;43.194;27.646;2023-08-08T12:41:18;22.83;;;20.80;;
6027;SDS011;3042;43.194;27.646;2023-08-08T12:43:46;36.40;;;24.20;;
6027;SDS011;3042;43.194;27.646;2023-08-08T12:46:13;28.20;;;25.60;;
6027;SDS011;3042;43.194;27.646;2023-08-08T12:48:40;31.40;;;22.20;;
6027;SDS011;3042;43.194;27.646;2023-08-08T12:51:08;37.70;;;23.37;;
6027;SDS011;3042;43.194;27.646;2023-08-08T12:53:37;23.20;;;21.70;;
6027;SDS011;3042;43.194;27.646;2023-08-08T12:56:05;25.53;;;22.80;;
6027;SDS011;3042;43.194;27.646;2023-08-08T12:58:32;36.67;;;29.23;;
6027;SDS011;3042;43.194;27.646;2023-08-08T13:01:00;31.13;;;25.30;;
6027;SDS011;3042;43.194;27.646;2023-08-08T13:03:27;33.70;;;25.47;;
6027;SDS011;3042;43.194;27.646;2023-08-08T13:05:55;25.87;;;23.60;;
6027;SDS011;3042;43.194;27.646;2023-08-08T13:08:22;22.93;;;21.30;;
6027;SDS011;3042;43.194;27.646;2023-08-08T13:10:49;24.23;;;22.20;;
6027;SDS011;3042;43.194;27.646;2023-08-08T13:13:17;35.90;;;22.70;;
6027;SDS011;3042;43.194;27.646;2023-08-08T13:15:44;35.40;;;23.80;;
6027;SDS011;3042;43.194;27.646;2023-08-08T13:18:13;34.03;;;26.40;;
6027;SDS011;3042;43.194;27.646;2023-08-08T13:20:41;24.50;;;22.10;;
6027;SDS011;3042;43.194;27.646;2023-08-08T13:23:08;41.40;;;28.87;;
6027;SDS011;3042;43.194;27.646;2023-08-08T13:25:35;23.87;;;22.30;;
6027;SDS011;3042;43.194;27.646;2023-08-08T13:28:02;24.37;;;22.47;;
6027;SDS011;3042;43.194;27.646;2023-08-08T13:30:29;25.50;;;22.97;;
6027;SDS011;3042;43.194;27.646;2023-08-08T13:32:59;17.50;;;16.50;;
6027;SDS011;3042;43.194;27.646;2023-08-08T13:35:27;15.83;;;15.03;;
6027;SDS011;3042;43.194;27.646;2023-08-08T13:37:55;16.20;;;15.30;;
6027;SDS011;3042;43.194;27.646;2023-08-08T13:40:22;17.07;;;15.80;;
6027;SDS011;3042;43.194;27.646;2023-08-08T13:42:49;19.77;;;18.23;;
6027;SDS011;3042;43.194;27.646;2023-08-08T13:45:16;25.73;;;16.73;;
6027;SDS011;3042;43.194;27.646;2023-08-08T13:47:45;26.63;;;24.10;;
6027;SDS011;3042;43.194;27.646;2023-08-08T13:50:13;18.30;;;16.70;;
6027;SDS011;3042;43.194;27.646;2023-08-08T13:52:42;30.53;;;18.50;;
6027;SDS011;3042;43.194;27.646;2023-08-08T13:55:09;20.30;;;16.10;;
6027;SDS011;3042;43.194;27.646;2023-08-08T13:57:36;24.23;;;21.00;;
6027;SDS011;3042;43.194;27.646;2023-08-08T14:00:03;25.90;;;17.77;;
6027;SDS011;3042;43.194;27.646;2023-08-08T14:02:31;18.07;;;16.20;;
6027;SDS011;3042;43.194;27.646;2023-08-08T14:04:59;21.23;;;17.53;;
6027;SDS011;3042;43.194;27.646;2023-08-08T14:07:26;18.03;;;16.10;;
6027;SDS011;3042;43.194;27.646;2023-08-08T14:09:56;18.07;;;16.57;;
6027;SDS011;3042;43.194;27.646;2023-08-08T14:12:24;19.30;;;17.03;;
6027;SDS011;3042;43.194;27.646;2023-08-08T14:14:51;17.73;;;16.13;;
6027;SDS011;3042;43.194;27.646;2023-08-08T14:17:18;23.40;;;16.47;;
6027;SDS011;3042;43.194;27.646;2023-08-08T14:19:45;16.30;;;15.17;;
6027;SDS011;3042;43.194;27.646;2023-08-08T14:22:12;15.07;;;14.37;;
6027;SDS011;3042;43.194;27.646;2023-08-08T14:24:42;17.53;;;16.43;;
6027;SDS011;3042;43.194;27.646;2023-08-08T14:27:11;18.17;;;16.23;;
6027;SDS011;3042;43.194;27.646;2023-08-08T14:29:38;26.90;;;24.47;;
6027;SDS011;3042;43.194;27.646;2023-08-08T14:32:06;19.30;;;17.23;;
6027;SDS011;3042;43.194;27.646;2023-08-08T14:34:33;16.90;;;15.80;;
6027;SDS011;3042;43.194;27.646;2023-08-08T14:37:03;18.60;;;17.60;;
6027;SDS011;3042;43.194;27.646;2023-08-08T14:39:31;15.93;;;15.13;;
6027;SDS011;3042;43.194;27.646;2023-08-08T14:41:58;16.83;;;15.80;;
6027;SDS011;3042;43.194;27.646;2023-08-08T14:44:28;19.20;;;17.63;;
6027;SDS011;3042;43.194;27.646;2023-08-08T14:46:55;15.73;;;14.93;;
6027;SDS011;3042;43.194;27.646;2023-08-08T14:49:22;15.80;;;15.10;;